createdAt,value
2023-02-01T05:33:25.941Z,98324.63
2023-02-01T05:38:27.985Z,98327.34
2023-02-01T05:43:29.766Z,98317.78
2023-02-01T05:48:31.520Z,98311.84
2023-02-01T05:53:33.180Z,98308.06
2023-02-01T05:58:34.869Z,98312.19
2023-02-01T06:03:37.010Z,98288.94
2023-02-01T06:08:41.246Z,98294.94
2023-02-01T06:13:42.995Z,98296.63
2023-02-01T06:18:44.644Z,98289.28
2023-02-01T06:23:46.352Z,98299.28
2023-02-01T06:28:48.159Z,98307.53
2023-02-01T06:33:49.921Z,98302.59
2023-02-01T06:38:51.643Z,98326.72
2023-02-01T06:43:53.338Z,98317.22
2023-02-01T06:48:55.370Z,98318.44
2023-02-01T06:53:57.943Z,98319.72
2023-02-01T06:58:59.734Z,98316.22
2023-02-01T07:04:02.043Z,98307.22
2023-02-01T07:09:04.023Z,98305.53
2023-02-01T07:14:05.812Z,98308.69
2023-02-01T07:19:07.518Z,98311.59
2023-02-01T07:24:09.247Z,98314.75
2023-02-01T07:29:11.936Z,98301.94
2023-02-01T07:34:13.697Z,98306.88
2023-02-01T07:39:15.384Z,98282.28
2023-02-01T07:44:20.150Z,98278.50
2023-02-01T07:49:21.813Z,98269.97
2023-02-01T07:54:23.537Z,98268.56
2023-02-01T07:59:25.308Z,98259.88
2023-02-01T08:04:27.043Z,98253.28
2023-02-01T08:09:28.698Z,98267.88
2023-02-01T08:14:30.374Z,98255.22
2023-02-01T08:19:32.038Z,98222.31
2023-02-01T08:24:35.091Z,98232.09
2023-02-01T08:29:37.304Z,98212.44
2023-02-01T08:34:39.187Z,98196.97
2023-02-01T08:39:41.651Z,98196.63
2023-02-01T08:44:43.614Z,98217.84
2023-02-01T08:49:45.762Z,98208.56
2023-02-01T08:54:47.731Z,98196.34
2023-02-01T08:59:49.646Z,98198.69
2023-02-01T09:04:51.326Z,98193.75
2023-02-01T09:09:53.949Z,98213.66
2023-02-01T09:14:58.191Z,98188.81
2023-02-01T09:20:00.211Z,98196.72
2023-02-01T09:25:01.884Z,98198.31
2023-02-01T09:30:05.735Z,98206.50
2023-02-01T09:35:07.913Z,98178.06
2023-02-01T09:40:15.621Z,98202.22
2023-02-01T09:46:00.746Z,98211.25
2023-02-01T09:51:07.772Z,98213.91
2023-02-01T09:56:22.961Z,98216.38
2023-02-01T10:01:28.365Z,98237.13
2023-02-01T10:06:34.108Z,98213.16
2023-02-01T10:12:00.769Z,98191.91
2023-02-01T10:17:02.419Z,98202.25
2023-02-01T10:22:11.968Z,98209.91
2023-02-01T10:27:35.071Z,98202.16
2023-02-01T10:32:37.916Z,98215.78
2023-02-01T10:37:42.813Z,98203.75
2023-02-01T10:42:45.602Z,98211.03
2023-02-01T10:47:50.523Z,98218.06
2023-02-01T10:53:07.955Z,98227.34
2023-02-01T10:58:20.258Z,98230.44
2023-02-01T11:03:30.996Z,98251.16
2023-02-01T11:08:33.148Z,98241.94
2023-02-01T11:13:40.070Z,98221.44
2023-02-01T11:18:42.272Z,98272.56
2023-02-01T11:23:46.647Z,98251.41
2023-02-01T11:28:59.401Z,98259.47
2023-02-01T11:34:16.955Z,98223.84
2023-02-01T11:39:30.448Z,98221.34
2023-02-01T11:44:34.138Z,98207.72
2023-02-01T11:49:36.245Z,98188.28
2023-02-01T11:54:47.042Z,98193.03
2023-02-01T11:59:57.147Z,98188.69
2023-02-01T12:05:25.731Z,98185.44
2023-02-01T12:10:45.854Z,98170.06
2023-02-01T12:15:58.331Z,98170.06
2023-02-01T12:21:19.711Z,98173.47
2023-02-01T12:26:45.374Z,98163.75
2023-02-01T12:31:58.922Z,98163.34
2023-02-01T12:37:14.736Z,98165.31
2023-02-01T12:42:23.669Z,98171.22
2023-02-01T12:47:38.200Z,98164.47
2023-02-01T12:52:47.297Z,98156.78
2023-02-01T12:57:54.852Z,98139.22
2023-02-01T13:03:45.822Z,98160.00
2023-02-01T13:08:58.082Z,98162.72
2023-02-01T13:14:16.749Z,98183.59
2023-02-01T13:19:53.467Z,98188.75
2023-02-01T13:25:01.911Z,98188.69
2023-02-01T13:30:19.311Z,98203.25
2023-02-01T13:35:24.962Z,98236.84
2023-02-01T13:40:48.765Z,98245.16
2023-02-01T13:45:57.511Z,98233.78
2023-02-01T13:51:00.625Z,98252.72
2023-02-01T13:56:08.148Z,98240.09
2023-02-01T14:01:22.139Z,98248.34
2023-02-01T14:06:27.512Z,98242.09
2023-02-01T14:11:36.862Z,98237.00
2023-02-01T14:16:38.799Z,98250.03
2023-02-01T14:21:59.732Z,98237.00
2023-02-01T14:27:22.980Z,98226.94
2023-02-01T14:32:32.973Z,98216.16
2023-02-01T14:37:40.249Z,98222.41
2023-02-01T14:42:50.961Z,98229.06
2023-02-01T14:48:16.481Z,98208.97
2023-02-01T14:53:24.482Z,98206.13
2023-02-01T14:59:23.715Z,98203.66
2023-02-01T15:04:27.485Z,98179.50
2023-02-01T15:09:36.117Z,98185.84
2023-02-01T15:14:41.308Z,98184.53
2023-02-01T15:19:54.791Z,98195.31
2023-02-01T15:24:59.142Z,98200.47
2023-02-01T15:30:17.077Z,98195.50
2023-02-01T15:35:58.096Z,98196.25
2023-02-01T15:41:14.411Z,98193.88
2023-02-01T15:46:22.347Z,98211.06
2023-02-01T15:51:27.681Z,98196.91
2023-02-01T15:56:35.671Z,98193.34
2023-02-01T16:01:39.793Z,98204.72
2023-02-01T16:06:59.135Z,98197.81
2023-02-01T16:12:02.386Z,98135.41
2023-02-01T16:17:04.105Z,98215.44
2023-02-01T16:22:05.806Z,98220.91
2023-02-01T16:27:08.173Z,98198.44
2023-02-01T16:32:20.364Z,98214.75
2023-02-01T16:37:24.873Z,98212.94
2023-02-01T16:42:26.508Z,98203.97
2023-02-01T16:47:28.206Z,98209.81
2023-02-01T16:52:30.069Z,98212.94
2023-02-01T16:57:32.039Z,98219.97
2023-02-01T17:02:33.730Z,98199.69
2023-02-01T17:07:36.336Z,98215.44
2023-02-01T17:12:38.101Z,98193.63
2023-02-01T17:17:43.127Z,98203.97
2023-02-01T17:22:44.825Z,98204.81
2023-02-01T17:27:46.560Z,98186.03
2023-02-01T17:32:48.634Z,98201.97
2023-02-01T17:37:51.037Z,98204.44
2023-02-01T17:42:57.556Z,98198.25
2023-02-01T17:47:59.267Z,98206.31
2023-02-01T17:53:01.126Z,98212.41
2023-02-01T17:58:03.069Z,98208.00
2023-02-01T18:03:04.908Z,98206.31
2023-02-01T18:08:07.264Z,98208.22
2023-02-01T18:13:12.136Z,98202.91
2023-02-01T18:18:14.022Z,98170.38
2023-02-01T18:23:22.564Z,98196.53
2023-02-01T18:28:24.292Z,98188.91
2023-02-01T18:33:25.911Z,98193.78
2023-02-01T18:38:27.662Z,98201.16
2023-02-01T18:43:29.369Z,98162.28
2023-02-01T18:48:31.251Z,98182.59
2023-02-01T18:53:33.118Z,98177.50
2023-02-01T18:58:34.848Z,98166.88
2023-02-01T19:03:41.095Z,98177.69
2023-02-01T19:08:47.107Z,98164.81
2023-02-01T19:13:51.055Z,98150.88
2023-02-01T19:18:53.679Z,98136.56
2023-02-01T19:23:55.422Z,98134.09
2023-02-01T19:28:58.937Z,98135.13
2023-02-01T19:34:00.826Z,98113.06
2023-02-01T19:39:02.443Z,98108.50
2023-02-01T19:44:04.547Z,98112.69
2023-02-01T19:49:12.013Z,98151.50
2023-02-01T19:54:13.780Z,98149.09
2023-02-01T19:59:15.549Z,98198.72
2023-02-01T20:04:17.224Z,98146.03
2023-02-01T20:09:29.586Z,98130.41
2023-02-01T20:14:31.259Z,98136.56
2023-02-01T20:19:33.644Z,98131.66
2023-02-01T20:24:35.300Z,98136.94
2023-02-01T20:29:37.930Z,98112.41
2023-02-01T20:34:39.697Z,98113.06
2023-02-01T20:39:41.396Z,98128.41
2023-02-01T20:44:42.994Z,98140.94
2023-02-01T20:49:44.635Z,98130.13
2023-02-01T20:54:46.303Z,98117.44
2023-02-01T20:59:49.402Z,98096.97
2023-02-01T21:04:51.086Z,98094.13
2023-02-01T21:09:52.728Z,98086.91
2023-02-01T21:14:55.446Z,98102.28
2023-02-01T21:19:57.514Z,98105.75
2023-02-01T21:25:00.715Z,98084.81
2023-02-01T21:30:07.876Z,98088.78
2023-02-01T21:35:10.331Z,98082.34
2023-02-01T21:40:12.733Z,98070.06
2023-02-01T21:45:15.957Z,98087.31
2023-02-01T21:50:19.576Z,98073.94
